sensor_id;sensor_type;location;lat;lon;timestamp;P1;durP1;ratioP1;P2;durP2;ratioP2
26530;SDS011;14201;43.188;24.160;2023-04-01T00:00:18;11.50;;;7.80;;
26530;SDS011;14201;43.188;24.160;2023-04-01T00:02:45;12.25;;;7.53;;
26530;SDS011;14201;43.188;24.160;2023-04-01T00:05:11;11.27;;;7.43;;
26530;SDS011;14201;43.188;24.160;2023-04-01T00:07:37;14.57;;;7.68;;
26530;SDS011;14201;43.188;24.160;2023-04-01T00:10:04;16.55;;;7.72;;
26530;SDS011;14201;43.188;24.160;2023-04-01T00:12:30;10.38;;;7.55;;
26530;SDS011;14201;43.188;24.160;2023-04-01T00:14:56;13.57;;;7.57;;
26530;SDS011;14201;43.188;24.160;2023-04-01T00:17:21;11.90;;;6.82;;
26530;SDS011;14201;43.188;24.160;2023-04-01T00:19:47;15.20;;;7.18;;
26530;SDS011;14201;43.188;24.160;2023-04-01T00:22:13;11.60;;;6.53;;
26530;SDS011;14201;43.188;24.160;2023-04-01T00:24:39;10.18;;;5.95;;
26530;SDS011;14201;43.188;24.160;2023-04-01T00:27:04;9.23;;;6.50;;
26530;SDS011;14201;43.188;24.160;2023-04-01T00:29:30;9.20;;;6.30;;
26530;SDS011;14201;43.188;24.160;2023-04-01T00:31:57;12.13;;;6.65;;
26530;SDS011;14201;43.188;24.160;2023-04-01T00:34:23;10.65;;;5.68;;
26530;SDS011;14201;43.188;24.160;2023-04-01T00:36:52;11.27;;;6.40;;
26530;SDS011;14201;43.188;24.160;2023-04-01T00:39:19;7.70;;;6.25;;
26530;SDS011;14201;43.188;24.160;2023-04-01T00:41:47;12.80;;;6.15;;
26530;SDS011;14201;43.188;24.160;2023-04-01T00:44:21;10.45;;;6.07;;
26530;SDS011;14201;43.188;24.160;2023-04-01T00:46:51;11.75;;;5.68;;
26530;SDS011;14201;43.188;24.160;2023-04-01T00:49:20;11.68;;;6.28;;
26530;SDS011;14201;43.188;24.160;2023-04-01T00:51:50;10.30;;;6.35;;
26530;SDS011;14201;43.188;24.160;2023-04-01T00:54:19;11.13;;;6.68;;
26530;SDS011;14201;43.188;24.160;2023-04-01T00:56:50;13.43;;;6.28;;
26530;SDS011;14201;43.188;24.160;2023-04-01T00:59:27;10.55;;;5.57;;
26530;SDS011;14201;43.188;24.160;2023-04-01T01:01:56;11.27;;;6.18;;
26530;SDS011;14201;43.188;24.160;2023-04-01T01:04:23;10.30;;;6.45;;
26530;SDS011;14201;43.188;24.160;2023-04-01T01:12:15;10.27;;;6.70;;
26530;SDS011;14201;43.188;24.160;2023-04-01T01:17:19;9.63;;;6.07;;
26530;SDS011;14201;43.188;24.160;2023-04-01T01:31:54;12.25;;;6.40;;
26530;SDS011;14201;43.188;24.160;2023-04-01T01:36:55;9.90;;;6.32;;
26530;SDS011;14201;43.188;24.160;2023-04-01T01:41:53;13.90;;;7.15;;
26530;SDS011;14201;43.188;24.160;2023-04-01T01:44:22;8.77;;;6.33;;
26530;SDS011;14201;43.188;24.160;2023-04-01T01:46:50;11.63;;;6.82;;
26530;SDS011;14201;43.188;24.160;2023-04-01T01:49:16;14.13;;;6.50;;
26530;SDS011;14201;43.188;24.160;2023-04-01T01:51:44;9.07;;;6.00;;
26530;SDS011;14201;43.188;24.160;2023-04-01T01:54:14;10.95;;;6.25;;
26530;SDS011;14201;43.188;24.160;2023-04-01T01:56:41;14.85;;;7.40;;
26530;SDS011;14201;43.188;24.160;2023-04-01T01:59:09;9.65;;;6.20;;
26530;SDS011;14201;43.188;24.160;2023-04-01T02:01:37;14.20;;;6.70;;
26530;SDS011;14201;43.188;24.160;2023-04-01T02:04:07;14.00;;;6.65;;
26530;SDS011;14201;43.188;24.160;2023-04-01T02:06:37;11.38;;;5.85;;
26530;SDS011;14201;43.188;24.160;2023-04-01T02:09:07;10.85;;;5.93;;
26530;SDS011;14201;43.188;24.160;2023-04-01T02:11:52;11.52;;;6.20;;
26530;SDS011;14201;43.188;24.160;2023-04-01T02:14:26;11.82;;;6.45;;
26530;SDS011;14201;43.188;24.160;2023-04-01T02:17:09;10.88;;;6.22;;
26530;SDS011;14201;43.188;24.160;2023-04-01T02:19:46;12.40;;;6.13;;
26530;SDS011;14201;43.188;24.160;2023-04-01T02:22:20;11.98;;;6.55;;
26530;SDS011;14201;43.188;24.160;2023-04-01T02:24:49;8.13;;;5.80;;
26530;SDS011;14201;43.188;24.160;2023-04-01T02:27:17;15.07;;;6.55;;
26530;SDS011;14201;43.188;24.160;2023-04-01T02:29:44;9.13;;;5.85;;
26530;SDS011;14201;43.188;24.160;2023-04-01T02:32:10;11.80;;;5.85;;
26530;SDS011;14201;43.188;24.160;2023-04-01T02:34:38;9.23;;;5.85;;
26530;SDS011;14201;43.188;24.160;2023-04-01T02:37:04;10.85;;;6.20;;
26530;SDS011;14201;43.188;24.160;2023-04-01T02:39:30;11.77;;;5.97;;
26530;SDS011;14201;43.188;24.160;2023-04-01T02:41:55;10.07;;;6.10;;
26530;SDS011;14201;43.188;24.160;2023-04-01T02:44:21;13.18;;;6.00;;
26530;SDS011;14201;43.188;24.160;2023-04-01T02:46:47;10.05;;;5.82;;
26530;SDS011;14201;43.188;24.160;2023-04-01T02:49:12;12.43;;;6.35;;
26530;SDS011;14201;43.188;24.160;2023-04-01T02:51:38;12.10;;;6.20;;
26530;SDS011;14201;43.188;24.160;2023-04-01T02:54:03;13.30;;;5.72;;
26530;SDS011;14201;43.188;24.160;2023-04-01T02:56:29;12.00;;;6.32;;
26530;SDS011;14201;43.188;24.160;2023-04-01T02:58:56;12.30;;;6.40;;
26530;SDS011;14201;43.188;24.160;2023-04-01T03:01:21;12.75;;;6.20;;
26530;SDS011;14201;43.188;24.160;2023-04-01T03:03:47;9.82;;;5.90;;
26530;SDS011;14201;43.188;24.160;2023-04-01T03:06:14;9.70;;;6.32;;
26530;SDS011;14201;43.188;24.160;2023-04-01T03:08:41;17.52;;;5.85;;
26530;SDS011;14201;43.188;24.160;2023-04-01T03:11:06;10.27;;;5.68;;
26530;SDS011;14201;43.188;24.160;2023-04-01T03:13:32;8.95;;;4.72;;
26530;SDS011;14201;43.188;24.160;2023-04-01T03:15:58;15.13;;;5.18;;
26530;SDS011;14201;43.188;24.160;2023-04-01T03:18:23;12.50;;;6.03;;
26530;SDS011;14201;43.188;24.160;2023-04-01T03:20:49;13.77;;;6.28;;
26530;SDS011;14201;43.188;24.160;2023-04-01T03:23:15;10.43;;;5.65;;
26530;SDS011;14201;43.188;24.160;2023-04-01T03:25:42;12.10;;;5.57;;
26530;SDS011;14201;43.188;24.160;2023-04-01T03:28:08;9.15;;;5.60;;
26530;SDS011;14201;43.188;24.160;2023-04-01T03:30:34;12.95;;;5.65;;
26530;SDS011;14201;43.188;24.160;2023-04-01T03:32:59;9.60;;;5.00;;
26530;SDS011;14201;43.188;24.160;2023-04-01T03:35:26;6.82;;;3.83;;
26530;SDS011;14201;43.188;24.160;2023-04-01T03:37:52;7.70;;;3.80;;
26530;SDS011;14201;43.188;24.160;2023-04-01T03:40:18;9.35;;;4.13;;
26530;SDS011;14201;43.188;24.160;2023-04-01T03:42:44;9.20;;;4.22;;
26530;SDS011;14201;43.188;24.160;2023-04-01T03:45:11;9.50;;;5.40;;
26530;SDS011;14201;43.188;24.160;2023-04-01T03:47:37;9.07;;;5.68;;
26530;SDS011;14201;43.188;24.160;2023-04-01T03:50:04;10.93;;;5.22;;
26530;SDS011;14201;43.188;24.160;2023-04-01T03:52:31;11.45;;;4.32;;
26530;SDS011;14201;43.188;24.160;2023-04-01T03:54:57;6.63;;;3.47;;
26530;SDS011;14201;43.188;24.160;2023-04-01T03:57:22;7.00;;;2.90;;
26530;SDS011;14201;43.188;24.160;2023-04-01T03:59:48;8.30;;;3.85;;
26530;SDS011;14201;43.188;24.160;2023-04-01T04:02:14;10.63;;;5.50;;
26530;SDS011;14201;43.188;24.160;2023-04-01T04:04:39;11.65;;;3.50;;
26530;SDS011;14201;43.188;24.160;2023-04-01T04:07:06;6.50;;;2.30;;
26530;SDS011;14201;43.188;24.160;2023-04-01T04:09:32;8.25;;;1.88;;
26530;SDS011;14201;43.188;24.160;2023-04-01T04:11:58;4.70;;;2.17;;
26530;SDS011;14201;43.188;24.160;2023-04-01T04:14:25;8.32;;;1.95;;
26530;SDS011;14201;43.188;24.160;2023-04-01T04:16:50;3.88;;;1.60;;
26530;SDS011;14201;43.188;24.160;2023-04-01T04:19:16;10.50;;;2.08;;
26530;SDS011;14201;43.188;24.160;2023-04-01T04:21:42;4.88;;;1.85;;
26530;SDS011;14201;43.188;24.160;2023-04-01T04:24:07;6.38;;;1.98;;
26530;SDS011;14201;43.188;24.160;2023-04-01T04:26:33;8.20;;;1.98;;
26530;SDS011;14201;43.188;24.160;2023-04-01T04:28:59;4.95;;;1.98;;
26530;SDS011;14201;43.188;24.160;2023-04-01T04:31:25;4.00;;;1.70;;
26530;SDS011;14201;43.188;24.160;2023-04-01T04:33:52;10.10;;;2.00;;
26530;SDS011;14201;43.188;24.160;2023-04-01T04:36:18;7.75;;;1.90;;
26530;SDS011;14201;43.188;24.160;2023-04-01T04:38:45;5.32;;;1.98;;
26530;SDS011;14201;43.188;24.160;2023-04-01T04:41:15;3.90;;;1.90;;
26530;SDS011;14201;43.188;24.160;2023-04-01T04:43:48;5.80;;;1.95;;
26530;SDS011;14201;43.188;24.160;2023-04-01T04:46:15;4.10;;;1.90;;
26530;SDS011;14201;43.188;24.160;2023-04-01T04:48:41;4.50;;;2.00;;
26530;SDS011;14201;43.188;24.160;2023-04-01T04:51:11;7.43;;;2.08;;
26530;SDS011;14201;43.188;24.160;2023-04-01T04:53:39;8.50;;;1.90;;
26530;SDS011;14201;43.188;24.160;2023-04-01T04:56:05;7.13;;;2.28;;
26530;SDS011;14201;43.188;24.160;2023-04-01T04:58:31;5.15;;;2.10;;
26530;SDS011;14201;43.188;24.160;2023-04-01T05:00:57;5.50;;;2.10;;
26530;SDS011;14201;43.188;24.160;2023-04-01T05:03:22;6.35;;;1.98;;
26530;SDS011;14201;43.188;24.160;2023-04-01T05:05:51;9.10;;;2.30;;
26530;SDS011;14201;43.188;24.160;2023-04-01T05:08:18;9.75;;;2.17;;
26530;SDS011;14201;43.188;24.160;2023-04-01T05:10:44;9.10;;;2.20;;
26530;SDS011;14201;43.188;24.160;2023-04-01T05:13:11;6.32;;;2.25;;
26530;SDS011;14201;43.188;24.160;2023-04-01T05:15:36;6.82;;;2.03;;
26530;SDS011;14201;43.188;24.160;2023-04-01T05:18:02;7.90;;;1.98;;
26530;SDS011;14201;43.188;24.160;2023-04-01T05:20:28;6.20;;;1.75;;
26530;SDS011;14201;43.188;24.160;2023-04-01T05:22:57;8.90;;;2.15;;
26530;SDS011;14201;43.188;24.160;2023-04-01T05:25:24;5.55;;;1.85;;
26530;SDS011;14201;43.188;24.160;2023-04-01T05:27:50;6.53;;;1.90;;
26530;SDS011;14201;43.188;24.160;2023-04-01T05:30:16;5.85;;;2.00;;
26530;SDS011;14201;43.188;24.160;2023-04-01T05:32:41;6.35;;;1.50;;
26530;SDS011;14201;43.188;24.160;2023-04-01T05:35:08;5.45;;;1.70;;
26530;SDS011;14201;43.188;24.160;2023-04-01T05:37:35;8.32;;;1.80;;
26530;SDS011;14201;43.188;24.160;2023-04-01T05:40:00;6.65;;;2.00;;
26530;SDS011;14201;43.188;24.160;2023-04-01T05:42:26;4.32;;;1.50;;
26530;SDS011;14201;43.188;24.160;2023-04-01T05:44:52;10.05;;;2.00;;
26530;SDS011;14201;43.188;24.160;2023-04-01T05:47:18;8.15;;;2.58;;
26530;SDS011;14201;43.188;24.160;2023-04-01T05:49:43;8.13;;;2.20;;
26530;SDS011;14201;43.188;24.160;2023-04-01T05:52:09;7.38;;;2.10;;
26530;SDS011;14201;43.188;24.160;2023-04-01T05:54:35;8.00;;;1.95;;
26530;SDS011;14201;43.188;24.160;2023-04-01T05:57:00;6.43;;;1.90;;
26530;SDS011;14201;43.188;24.160;2023-04-01T05:59:26;4.45;;;1.80;;
26530;SDS011;14201;43.188;24.160;2023-04-01T06:01:52;5.90;;;2.60;;
26530;SDS011;14201;43.188;24.160;2023-04-01T06:04:18;5.60;;;2.90;;
26530;SDS011;14201;43.188;24.160;2023-04-01T06:06:43;8.05;;;2.92;;
26530;SDS011;14201;43.188;24.160;2023-04-01T06:09:14;7.72;;;3.00;;
26530;SDS011;14201;43.188;24.160;2023-04-01T06:48:23;8.88;;;2.92;;
26530;SDS011;14201;43.188;24.160;2023-04-01T06:53:40;7.20;;;2.50;;
26530;SDS011;14201;43.188;24.160;2023-04-01T06:56:19;8.52;;;2.63;;
26530;SDS011;14201;43.188;24.160;2023-04-01T06:58:51;8.85;;;2.83;;
26530;SDS011;14201;43.188;24.160;2023-04-01T07:01:22;7.47;;;2.78;;
26530;SDS011;14201;43.188;24.160;2023-04-01T07:03:56;4.50;;;2.72;;
26530;SDS011;14201;43.188;24.160;2023-04-01T07:06:53;9.70;;;2.90;;
26530;SDS011;14201;43.188;24.160;2023-04-01T07:09:32;8.45;;;3.15;;
26530;SDS011;14201;43.188;24.160;2023-04-01T07:12:20;7.63;;;3.83;;
26530;SDS011;14201;43.188;24.160;2023-04-01T07:15:16;6.47;;;3.20;;
26530;SDS011;14201;43.188;24.160;2023-04-01T07:17:45;7.60;;;3.13;;
26530;SDS011;14201;43.188;24.160;2023-04-01T07:20:29;9.27;;;3.63;;
26530;SDS011;14201;43.188;24.160;2023-04-01T07:22:58;7.85;;;3.65;;
26530;SDS011;14201;43.188;24.160;2023-04-01T07:25:35;9.02;;;3.30;;
26530;SDS011;14201;43.188;24.160;2023-04-01T07:28:14;5.55;;;2.78;;
26530;SDS011;14201;43.188;24.160;2023-04-01T07:36:01;9.27;;;3.08;;
26530;SDS011;14201;43.188;24.160;2023-04-01T07:38:47;8.95;;;4.00;;
26530;SDS011;14201;43.188;24.160;2023-04-01T07:41:32;9.00;;;3.33;;
26530;SDS011;14201;43.188;24.160;2023-04-01T07:46:59;9.90;;;3.58;;
26530;SDS011;14201;43.188;24.160;2023-04-01T07:52:41;8.77;;;3.50;;
26530;SDS011;14201;43.188;24.160;2023-04-01T08:05:57;6.88;;;2.65;;
26530;SDS011;14201;43.188;24.160;2023-04-01T08:11:12;6.18;;;3.33;;
26530;SDS011;14201;43.188;24.160;2023-04-01T08:14:13;8.90;;;4.13;;
26530;SDS011;14201;43.188;24.160;2023-04-01T08:22:16;10.50;;;3.17;;
26530;SDS011;14201;43.188;24.160;2023-04-01T08:24:49;12.60;;;4.18;;
26530;SDS011;14201;43.188;24.160;2023-04-01T08:27:37;10.10;;;3.85;;
26530;SDS011;14201;43.188;24.160;2023-04-01T08:32:56;10.23;;;3.65;;
26530;SDS011;14201;43.188;24.160;2023-04-01T08:35:27;9.05;;;2.83;;
26530;SDS011;14201;43.188;24.160;2023-04-01T08:37:58;12.45;;;4.00;;
26530;SDS011;14201;43.188;24.160;2023-04-01T08:40:50;11.02;;;3.67;;
26530;SDS011;14201;43.188;24.160;2023-04-01T08:49:13;12.95;;;4.07;;
26530;SDS011;14201;43.188;24.160;2023-04-01T08:55:01;10.13;;;3.80;;
26530;SDS011;14201;43.188;24.160;2023-04-01T09:03:25;11.65;;;4.50;;
26530;SDS011;14201;43.188;24.160;2023-04-01T09:26:06;9.60;;;2.95;;
26530;SDS011;14201;43.188;24.160;2023-04-01T09:37:16;5.50;;;1.70;;
26530;SDS011;14201;43.188;24.160;2023-04-01T10:13:11;8.02;;;2.90;;
26530;SDS011;14201;43.188;24.160;2023-04-01T10:16:14;8.10;;;3.10;;
26530;SDS011;14201;43.188;24.160;2023-04-01T10:24:44;7.25;;;2.90;;
26530;SDS011;14201;43.188;24.160;2023-04-01T10:30:34;5.05;;;2.50;;
26530;SDS011;14201;43.188;24.160;2023-04-01T10:36:16;9.23;;;3.17;;
26530;SDS011;14201;43.188;24.160;2023-04-01T10:38:58;8.43;;;3.13;;
26530;SDS011;14201;43.188;24.160;2023-04-01T10:50:53;7.65;;;2.78;;
26530;SDS011;14201;43.188;24.160;2023-04-01T10:53:43;12.13;;;3.78;;
26530;SDS011;14201;43.188;24.160;2023-04-01T10:56:15;9.23;;;3.80;;
26530;SDS011;14201;43.188;24.160;2023-04-01T10:59:00;7.75;;;3.05;;
26530;SDS011;14201;43.188;24.160;2023-04-01T11:29:53;8.95;;;3.63;;
26530;SDS011;14201;43.188;24.160;2023-04-01T11:41:08;5.30;;;2.75;;
26530;SDS011;14201;43.188;24.160;2023-04-01T11:43:47;8.13;;;3.28;;
26530;SDS011;14201;43.188;24.160;2023-04-01T11:46:20;8.52;;;3.42;;
26530;SDS011;14201;43.188;24.160;2023-04-01T12:03:00;10.32;;;4.38;;
26530;SDS011;14201;43.188;24.160;2023-04-01T12:05:54;29.52;;;18.77;;
26530;SDS011;14201;43.188;24.160;2023-04-01T12:11:17;10.98;;;4.00;;
26530;SDS011;14201;43.188;24.160;2023-04-01T12:13:50;7.78;;;3.95;;
26530;SDS011;14201;43.188;24.160;2023-04-01T12:19:23;9.18;;;3.63;;
26530;SDS011;14201;43.188;24.160;2023-04-01T12:24:46;14.68;;;3.90;;
26530;SDS011;14201;43.188;24.160;2023-04-01T12:28:02;8.63;;;3.72;;
26530;SDS011;14201;43.188;24.160;2023-04-01T12:35:30;7.97;;;3.20;;
26530;SDS011;14201;43.188;24.160;2023-04-01T12:41:08;15.50;;;5.05;;
26530;SDS011;14201;43.188;24.160;2023-04-01T12:47:06;14.98;;;3.80;;
26530;SDS011;14201;43.188;24.160;2023-04-01T12:52:25;9.80;;;4.00;;
26530;SDS011;14201;43.188;24.160;2023-04-01T12:57:50;11.77;;;3.47;;
26530;SDS011;14201;43.188;24.160;2023-04-01T13:06:23;12.07;;;3.50;;
26530;SDS011;14201;43.188;24.160;2023-04-01T13:08:57;10.10;;;3.50;;
26530;SDS011;14201;43.188;24.160;2023-04-01T13:14:23;11.30;;;3.88;;
26530;SDS011;14201;43.188;24.160;2023-04-01T13:17:08;11.10;;;3.72;;
26530;SDS011;14201;43.188;24.160;2023-04-01T13:25:04;6.65;;;3.17;;
26530;SDS011;14201;43.188;24.160;2023-04-01T13:27:43;9.13;;;2.97;;
26530;SDS011;14201;43.188;24.160;2023-04-01T13:35:35;12.05;;;4.15;;
26530;SDS011;14201;43.188;24.160;2023-04-01T13:38:20;9.23;;;2.92;;
26530;SDS011;14201;43.188;24.160;2023-04-01T13:43:49;7.05;;;2.35;;
26530;SDS011;14201;43.188;24.160;2023-04-01T13:46:24;9.20;;;2.58;;
26530;SDS011;14201;43.188;24.160;2023-04-01T13:51:58;8.02;;;2.45;;
26530;SDS011;14201;43.188;24.160;2023-04-01T14:11:44;10.85;;;4.00;;
26530;SDS011;14201;43.188;24.160;2023-04-01T14:14:33;12.05;;;3.97;;
26530;SDS011;14201;43.188;24.160;2023-04-01T14:20:26;9.52;;;3.22;;
26530;SDS011;14201;43.188;24.160;2023-04-01T14:23:35;8.82;;;4.07;;
26530;SDS011;14201;43.188;24.160;2023-04-01T14:29:00;6.93;;;3.35;;
26530;SDS011;14201;43.188;24.160;2023-04-01T14:46:04;6.82;;;3.03;;
26530;SDS011;14201;43.188;24.160;2023-04-01T14:48:59;7.57;;;2.90;;
26530;SDS011;14201;43.188;24.160;2023-04-01T14:51:32;7.38;;;2.85;;
26530;SDS011;14201;43.188;24.160;2023-04-01T14:54:12;7.35;;;2.80;;
26530;SDS011;14201;43.188;24.160;2023-04-01T14:56:49;8.85;;;3.10;;
26530;SDS011;14201;43.188;24.160;2023-04-01T15:01:55;3.90;;;2.25;;
26530;SDS011;14201;43.188;24.160;2023-04-01T15:07:11;3.33;;;1.80;;
26530;SDS011;14201;43.188;24.160;2023-04-01T15:10:05;4.18;;;2.15;;
26530;SDS011;14201;43.188;24.160;2023-04-01T15:31:31;6.95;;;3.88;;
26530;SDS011;14201;43.188;24.160;2023-04-01T15:42:19;6.80;;;3.40;;
26530;SDS011;14201;43.188;24.160;2023-04-01T15:44:58;9.18;;;3.72;;
26530;SDS011;14201;43.188;24.160;2023-04-01T15:47:36;8.50;;;3.38;;
26530;SDS011;14201;43.188;24.160;2023-04-01T15:58:41;6.45;;;2.88;;
26530;SDS011;14201;43.188;24.160;2023-04-01T16:07:10;8.32;;;2.63;;
26530;SDS011;14201;43.188;24.160;2023-04-01T16:24:13;9.27;;;3.42;;
26530;SDS011;14201;43.188;24.160;2023-04-01T16:29:32;5.35;;;3.05;;
26530;SDS011;14201;43.188;24.160;2023-04-01T16:32:21;2.47;;;1.42;;
26530;SDS011;14201;43.188;24.160;2023-04-01T16:43:16;1.95;;;0.77;;
26530;SDS011;14201;43.188;24.160;2023-04-01T16:52:12;1.55;;;0.73;;
26530;SDS011;14201;43.188;24.160;2023-04-01T16:57:25;1.70;;;0.75;;
26530;SDS011;14201;43.188;24.160;2023-04-01T17:02:58;1.25;;;0.70;;
26530;SDS011;14201;43.188;24.160;2023-04-01T17:08:39;2.70;;;0.90;;
26530;SDS011;14201;43.188;24.160;2023-04-01T17:11:18;3.10;;;0.80;;
26530;SDS011;14201;43.188;24.160;2023-04-01T17:13:51;1.55;;;0.90;;
26530;SDS011;14201;43.188;24.160;2023-04-01T17:19:13;0.80;;;0.80;;
26530;SDS011;14201;43.188;24.160;2023-04-01T17:30:18;5.53;;;1.00;;
26530;SDS011;14201;43.188;24.160;2023-04-01T17:35:52;3.45;;;0.90;;
26530;SDS011;14201;43.188;24.160;2023-04-01T17:38:40;2.78;;;1.15;;
26530;SDS011;14201;43.188;24.160;2023-04-01T18:00:14;3.83;;;1.63;;
26530;SDS011;14201;43.188;24.160;2023-04-01T18:06:03;2.90;;;1.52;;
26530;SDS011;14201;43.188;24.160;2023-04-01T18:14:20;4.72;;;1.90;;
26530;SDS011;14201;43.188;24.160;2023-04-01T18:17:25;2.15;;;1.38;;
26530;SDS011;14201;43.188;24.160;2023-04-01T18:20:15;1.90;;;1.45;;
26530;SDS011;14201;43.188;24.160;2023-04-01T18:22:57;2.55;;;1.30;;
26530;SDS011;14201;43.188;24.160;2023-04-01T18:25:34;3.65;;;1.45;;
26530;SDS011;14201;43.188;24.160;2023-04-01T18:30:54;3.72;;;1.67;;
26530;SDS011;14201;43.188;24.160;2023-04-01T18:33:34;2.83;;;1.58;;
26530;SDS011;14201;43.188;24.160;2023-04-01T18:39:33;3.10;;;1.63;;
26530;SDS011;14201;43.188;24.160;2023-04-01T18:42:03;2.97;;;1.90;;
26530;SDS011;14201;43.188;24.160;2023-04-01T18:45:09;2.92;;;1.67;;
26530;SDS011;14201;43.188;24.160;2023-04-01T18:47:41;3.53;;;2.05;;
26530;SDS011;14201;43.188;24.160;2023-04-01T18:56:06;1.73;;;1.42;;
26530;SDS011;14201;43.188;24.160;2023-04-01T18:58:48;1.65;;;1.48;;
26530;SDS011;14201;43.188;24.160;2023-04-01T19:01:16;4.97;;;1.95;;
26530;SDS011;14201;43.188;24.160;2023-04-01T19:04:01;1.95;;;1.75;;
26530;SDS011;14201;43.188;24.160;2023-04-01T19:06:41;2.05;;;1.40;;
26530;SDS011;14201;43.188;24.160;2023-04-01T19:09:21;1.55;;;1.40;;
26530;SDS011;14201;43.188;24.160;2023-04-01T19:11:54;2.38;;;1.73;;
26530;SDS011;14201;43.188;24.160;2023-04-01T19:17:15;3.00;;;1.40;;
26530;SDS011;14201;43.188;24.160;2023-04-01T19:25:46;1.63;;;1.40;;
26530;SDS011;14201;43.188;24.160;2023-04-01T19:56:14;2.30;;;1.85;;
26530;SDS011;14201;43.188;24.160;2023-04-01T20:01:22;2.53;;;1.92;;
26530;SDS011;14201;43.188;24.160;2023-04-01T20:04:36;2.47;;;2.03;;
26530;SDS011;14201;43.188;24.160;2023-04-01T20:09:35;2.30;;;1.92;;
26530;SDS011;14201;43.188;24.160;2023-04-01T20:17:47;3.33;;;2.35;;
26530;SDS011;14201;43.188;24.160;2023-04-01T20:20:20;2.97;;;1.90;;
26530;SDS011;14201;43.188;24.160;2023-04-01T20:22:54;3.28;;;2.10;;
26530;SDS011;14201;43.188;24.160;2023-04-01T20:25:33;3.50;;;2.13;;
26530;SDS011;14201;43.188;24.160;2023-04-01T20:47:18;2.65;;;2.13;;
26530;SDS011;14201;43.188;24.160;2023-04-01T21:01:25;3.40;;;2.20;;
26530;SDS011;14201;43.188;24.160;2023-04-01T21:04:15;3.42;;;2.35;;
26530;SDS011;14201;43.188;24.160;2023-04-01T21:07:04;3.50;;;2.45;;
26530;SDS011;14201;43.188;24.160;2023-04-01T21:09:55;3.42;;;1.83;;
26530;SDS011;14201;43.188;24.160;2023-04-01T21:18:42;4.03;;;1.98;;
26530;SDS011;14201;43.188;24.160;2023-04-01T21:32:13;2.30;;;1.88;;
26530;SDS011;14201;43.188;24.160;2023-04-01T21:35:08;1.95;;;1.75;;
26530;SDS011;14201;43.188;24.160;2023-04-01T21:37:53;4.53;;;2.00;;
26530;SDS011;14201;43.188;24.160;2023-04-01T21:40:32;3.55;;;2.17;;
26530;SDS011;14201;43.188;24.160;2023-04-01T22:11:31;2.45;;;2.25;;
26530;SDS011;14201;43.188;24.160;2023-04-01T22:14:01;3.45;;;2.10;;
26530;SDS011;14201;43.188;24.160;2023-04-01T22:19:40;2.35;;;2.15;;
26530;SDS011;14201;43.188;24.160;2023-04-01T22:22:45;2.37;;;2.13;;
26530;SDS011;14201;43.188;24.160;2023-04-01T22:28:22;2.30;;;2.10;;
26530;SDS011;14201;43.188;24.160;2023-04-01T22:30:55;2.10;;;1.92;;
26530;SDS011;14201;43.188;24.160;2023-04-01T22:36:01;2.38;;;2.00;;
26530;SDS011;14201;43.188;24.160;2023-04-01T22:43:51;2.17;;;1.90;;
26530;SDS011;14201;43.188;24.160;2023-04-01T22:49:23;2.08;;;1.88;;
26530;SDS011;14201;43.188;24.160;2023-04-01T22:52:11;2.42;;;2.22;;
26530;SDS011;14201;43.188;24.160;2023-04-01T22:54:57;4.20;;;1.80;;
26530;SDS011;14201;43.188;24.160;2023-04-01T22:57:38;3.25;;;2.20;;
26530;SDS011;14201;43.188;24.160;2023-04-01T23:00:17;2.60;;;2.30;;
26530;SDS011;14201;43.188;24.160;2023-04-01T23:05:30;2.63;;;2.10;;
26530;SDS011;14201;43.188;24.160;2023-04-01T23:10:49;5.10;;;2.10;;
26530;SDS011;14201;43.188;24.160;2023-04-01T23:13:32;4.97;;;2.00;;
26530;SDS011;14201;43.188;24.160;2023-04-01T23:16:03;2.17;;;1.90;;
26530;SDS011;14201;43.188;24.160;2023-04-01T23:18:52;2.53;;;2.22;;
26530;SDS011;14201;43.188;24.160;2023-04-01T23:21:44;3.45;;;1.90;;
26530;SDS011;14201;43.188;24.160;2023-04-01T23:24:22;2.25;;;2.03;;
26530;SDS011;14201;43.188;24.160;2023-04-01T23:29:28;2.88;;;2.60;;
26530;SDS011;14201;43.188;24.160;2023-04-01T23:31:58;2.20;;;2.00;;
26530;SDS011;14201;43.188;24.160;2023-04-01T23:34:31;2.88;;;1.63;;
26530;SDS011;14201;43.188;24.160;2023-04-01T23:37:03;2.75;;;2.00;;
26530;SDS011;14201;43.188;24.160;2023-04-01T23:42:11;2.50;;;1.98;;
26530;SDS011;14201;43.188;24.160;2023-04-01T23:44:41;2.92;;;2.00;;
26530;SDS011;14201;43.188;24.160;2023-04-01T23:47:12;3.35;;;2.25;;
26530;SDS011;14201;43.188;24.160;2023-04-01T23:49:44;2.85;;;2.25;;
26530;SDS011;14201;43.188;24.160;2023-04-01T23:52:27;2.90;;;2.35;;
26530;SDS011;14201;43.188;24.160;2023-04-01T23:55:08;2.83;;;2.17;;
26530;SDS011;14201;43.188;24.160;2023-04-01T23:57:43;4.80;;;2.33;;
